createdAt,value
2018-03-30T00:00:27.669Z,1000.04
2018-03-30T00:01:27.640Z,1000.04
2018-03-30T00:02:27.615Z,1000.06
2018-03-30T00:03:27.593Z,1000.04
2018-03-30T00:04:27.567Z,1000.03
2018-03-30T00:05:27.539Z,1000.05
2018-03-30T00:06:27.515Z,1000.01
2018-03-30T00:07:27.490Z,999.99
2018-03-30T00:08:27.465Z,999.95
2018-03-30T00:09:27.437Z,1000.03
2018-03-30T00:10:27.413Z,1000.01
2018-03-30T00:11:27.413Z,1000.05
2018-03-30T00:12:27.362Z,1000.02
2018-03-30T00:13:27.339Z,999.99
2018-03-30T00:14:27.316Z,999.98
2018-03-30T00:15:27.287Z,999.98
2018-03-30T00:16:27.269Z,999.91
2018-03-30T00:17:27.237Z,999.88
2018-03-30T00:18:27.216Z,999.84
2018-03-30T00:19:27.186Z,999.83
2018-03-30T00:20:27.169Z,999.80
2018-03-30T00:21:27.137Z,999.80
2018-03-30T00:22:27.115Z,999.79
2018-03-30T00:23:27.094Z,999.78
2018-03-30T00:24:27.600Z,999.79
2018-03-30T00:25:27.035Z,999.73
2018-03-30T00:26:27.008Z,999.78
2018-03-30T00:27:26.983Z,999.75
2018-03-30T00:28:26.957Z,999.79
2018-03-30T00:29:26.941Z,999.74
2018-03-30T00:30:26.917Z,999.72
2018-03-30T00:31:26.895Z,999.70
2018-03-30T00:32:26.858Z,999.71
2018-03-30T00:33:26.862Z,999.73
2018-03-30T00:34:26.808Z,999.74
2018-03-30T00:35:26.784Z,999.69
2018-03-30T00:36:26.812Z,999.73
2018-03-30T00:37:26.733Z,999.72
2018-03-30T00:38:26.704Z,999.70
2018-03-30T00:39:26.678Z,999.70
2018-03-30T00:40:26.655Z,999.72
2018-03-30T00:41:26.629Z,999.64
2018-03-30T00:42:26.620Z,999.72
2018-03-30T00:43:26.581Z,999.68
2018-03-30T00:44:26.574Z,999.73
2018-03-30T00:45:26.526Z,999.67
2018-03-30T00:46:26.500Z,999.63
2018-03-30T00:47:26.489Z,999.62
2018-03-30T00:48:26.454Z,999.62
2018-03-30T00:49:26.427Z,999.56
2018-03-30T00:50:26.399Z,999.56
2018-03-30T00:51:26.376Z,999.54
2018-03-30T00:52:26.349Z,999.54
2018-03-30T00:53:26.324Z,999.50
2018-03-30T00:54:26.298Z,999.51
2018-03-30T00:55:26.277Z,999.48
2018-03-30T00:56:26.248Z,999.54
2018-03-30T00:57:26.219Z,999.47
2018-03-30T00:58:26.212Z,999.48
2018-03-30T00:59:26.173Z,999.49
2018-03-30T01:00:26.147Z,999.45
2018-03-30T01:01:26.128Z,999.43
2018-03-30T01:02:26.094Z,999.42
2018-03-30T01:03:26.071Z,999.44
2018-03-30T01:04:26.046Z,999.45
2018-03-30T01:05:26.017Z,999.45
2018-03-30T01:06:26.003Z,999.44
2018-03-30T01:07:25.972Z,999.46
2018-03-30T01:08:25.942Z,999.43
2018-03-30T01:09:25.916Z,999.42
2018-03-30T01:10:25.893Z,999.44
2018-03-30T01:11:25.866Z,999.36
2018-03-30T01:12:25.841Z,999.43
2018-03-30T01:13:25.815Z,999.41
2018-03-30T01:14:25.789Z,999.40
2018-03-30T01:15:25.766Z,999.40
2018-03-30T01:16:25.738Z,999.44
2018-03-30T01:17:25.716Z,999.43
2018-03-30T01:18:25.690Z,999.45
2018-03-30T01:19:25.663Z,999.46
2018-03-30T01:20:25.637Z,999.48
2018-03-30T01:21:25.612Z,999.46
2018-03-30T01:22:25.585Z,999.45
2018-03-30T01:23:25.560Z,999.48
2018-03-30T01:24:25.540Z,999.50
2018-03-30T01:25:25.513Z,999.45
2018-03-30T01:26:25.484Z,999.44
2018-03-30T01:27:25.462Z,999.44
2018-03-30T01:28:25.435Z,999.45
2018-03-30T01:29:25.417Z,999.43
2018-03-30T01:30:25.394Z,999.38
2018-03-30T01:31:25.358Z,999.37
2018-03-30T01:32:25.333Z,999.34
2018-03-30T01:33:25.312Z,999.33
2018-03-30T01:34:25.317Z,999.33
2018-03-30T01:35:25.266Z,999.30
2018-03-30T01:36:25.237Z,999.28
2018-03-30T01:37:25.205Z,999.29
2018-03-30T01:38:25.179Z,999.30
2018-03-30T01:39:25.174Z,999.27
2018-03-30T01:40:25.133Z,999.28
2018-03-30T01:41:25.100Z,999.24
2018-03-30T01:42:25.079Z,999.29
2018-03-30T01:43:25.050Z,999.24
2018-03-30T01:44:25.031Z,999.25
2018-03-30T01:45:25.002Z,999.22
2018-03-30T01:46:24.986Z,999.24
2018-03-30T01:47:24.952Z,999.28
2018-03-30T01:48:24.924Z,999.20
2018-03-30T01:49:24.916Z,999.24
2018-03-30T01:50:24.872Z,999.22
2018-03-30T01:51:24.858Z,999.22
2018-03-30T01:52:24.830Z,999.20
2018-03-30T01:53:24.799Z,999.18
2018-03-30T01:54:24.777Z,999.20
2018-03-30T01:55:24.760Z,999.19
2018-03-30T01:56:24.724Z,999.19
2018-03-30T01:57:24.696Z,999.17
2018-03-30T01:58:24.674Z,999.22
2018-03-30T01:59:24.651Z,999.21
2018-03-30T02:00:24.618Z,999.20
2018-03-30T02:01:24.595Z,999.20
2018-03-30T02:02:24.567Z,999.20
2018-03-30T02:03:24.551Z,999.20
2018-03-30T02:04:24.518Z,999.18
2018-03-30T02:05:24.492Z,999.19
2018-03-30T02:06:24.469Z,999.22
2018-03-30T02:07:24.441Z,999.18
2018-03-30T02:08:24.414Z,999.19
2018-03-30T02:09:24.390Z,999.12
2018-03-30T02:10:24.364Z,999.13
2018-03-30T02:11:24.337Z,999.15
2018-03-30T02:12:24.313Z,999.16
2018-03-30T02:13:24.288Z,999.13
2018-03-30T02:14:24.263Z,999.18
2018-03-30T02:15:24.237Z,999.12
2018-03-30T02:16:24.224Z,999.14
2018-03-30T02:17:24.191Z,999.08
2018-03-30T02:18:24.162Z,999.11
2018-03-30T02:19:24.135Z,999.08
2018-03-30T02:20:24.120Z,999.11
2018-03-30T02:21:24.087Z,999.10
2018-03-30T02:22:24.057Z,999.13
2018-03-30T02:23:24.038Z,999.05
2018-03-30T02:24:24.009Z,999.08
2018-03-30T02:25:23.982Z,999.05
2018-03-30T02:26:23.968Z,999.07
2018-03-30T02:27:23.932Z,999.02
2018-03-30T02:28:23.907Z,999.02
2018-03-30T02:29:23.881Z,999.05
2018-03-30T02:30:23.854Z,999.00
2018-03-30T02:31:23.832Z,998.99
2018-03-30T02:32:23.807Z,998.96
2018-03-30T02:33:23.779Z,998.96
2018-03-30T02:34:23.754Z,998.96
2018-03-30T02:35:23.729Z,998.93
2018-03-30T02:36:23.704Z,998.96
2018-03-30T02:37:23.678Z,998.92
2018-03-30T02:38:23.652Z,998.89
2018-03-30T02:39:23.633Z,998.89
2018-03-30T02:40:23.619Z,998.90
2018-03-30T02:41:23.577Z,998.87
2018-03-30T02:42:23.554Z,998.92
2018-03-30T02:43:23.531Z,998.92
2018-03-30T02:44:23.502Z,998.89
2018-03-30T02:45:23.475Z,998.87
2018-03-30T02:46:23.452Z,998.88
2018-03-30T02:47:23.426Z,998.88
2018-03-30T02:48:23.411Z,998.88
2018-03-30T02:49:23.371Z,998.89
2018-03-30T02:50:23.351Z,998.89
2018-03-30T02:51:23.345Z,998.90
2018-03-30T02:52:23.302Z,998.85
2018-03-30T02:53:23.278Z,998.88
2018-03-30T02:54:23.248Z,998.86
2018-03-30T02:55:23.228Z,998.88
2018-03-30T02:56:23.198Z,998.91
2018-03-30T02:57:23.175Z,998.88
2018-03-30T02:58:23.148Z,998.89
2018-03-30T02:59:23.123Z,998.90
2018-03-30T03:00:23.097Z,998.88
2018-03-30T03:01:23.078Z,998.89
2018-03-30T03:02:23.047Z,998.87
2018-03-30T03:03:23.061Z,998.83
2018-03-30T03:04:23.005Z,998.86
2018-03-30T03:05:22.969Z,998.85
2018-03-30T03:06:22.943Z,998.81
2018-03-30T03:07:23.171Z,998.82
2018-03-30T03:08:22.895Z,998.77
2018-03-30T03:09:22.870Z,998.79
2018-03-30T03:10:22.843Z,998.78
2018-03-30T03:11:22.819Z,998.76
2018-03-30T03:12:22.794Z,998.74
2018-03-30T03:13:22.769Z,998.69
2018-03-30T03:14:22.746Z,998.66
2018-03-30T03:15:22.721Z,998.63
2018-03-30T03:16:22.693Z,998.68
2018-03-30T03:17:22.680Z,998.70
2018-03-30T03:18:22.646Z,998.67
2018-03-30T03:19:22.624Z,998.67
2018-03-30T03:20:22.594Z,998.68
2018-03-30T03:21:22.573Z,998.74
2018-03-30T03:22:22.551Z,998.71
2018-03-30T03:23:22.519Z,998.67
2018-03-30T03:24:22.498Z,998.67
2018-03-30T03:25:22.481Z,998.59
2018-03-30T03:26:22.439Z,998.56
2018-03-30T03:27:22.417Z,998.57
2018-03-30T03:28:22.392Z,998.62
2018-03-30T03:29:22.370Z,998.57
2018-03-30T03:30:22.340Z,998.60
2018-03-30T03:31:22.324Z,998.62
2018-03-30T03:32:22.291Z,998.58
2018-03-30T03:33:22.271Z,998.60
2018-03-30T03:34:22.240Z,998.55
2018-03-30T03:35:22.214Z,998.58
2018-03-30T03:36:22.189Z,998.54
2018-03-30T03:37:22.163Z,998.52
2018-03-30T03:38:22.139Z,998.56
2018-03-30T03:39:22.114Z,998.51
2018-03-30T03:40:22.107Z,998.54
2018-03-30T03:41:22.064Z,998.52
2018-03-30T03:42:22.048Z,998.46
2018-03-30T03:43:22.018Z,998.49
2018-03-30T03:44:21.987Z,998.48
2018-03-30T03:45:21.981Z,998.49
2018-03-30T03:46:21.936Z,998.44
2018-03-30T03:47:21.918Z,998.46
2018-03-30T03:48:21.888Z,998.47
2018-03-30T03:49:21.861Z,998.43
2018-03-30T03:50:21.838Z,998.42
2018-03-30T03:51:21.830Z,998.42
2018-03-30T03:52:21.794Z,998.41
2018-03-30T03:53:21.762Z,998.38
2018-03-30T03:54:21.765Z,998.38
2018-03-30T03:55:21.711Z,998.40
2018-03-30T03:56:21.686Z,998.38
2018-03-30T03:57:21.668Z,998.36
2018-03-30T03:58:21.635Z,998.37
2018-03-30T03:59:21.613Z,998.36
2018-03-30T04:00:21.595Z,998.34
2018-03-30T04:01:21.562Z,998.36
2018-03-30T04:02:21.534Z,998.35
2018-03-30T04:03:21.512Z,998.34
2018-03-30T04:04:21.509Z,998.29
2018-03-30T04:05:21.507Z,998.26
2018-03-30T04:06:21.435Z,998.25
2018-03-30T04:07:21.413Z,998.24
2018-03-30T04:08:21.389Z,998.21
2018-03-30T04:09:21.362Z,998.24
2018-03-30T04:10:21.345Z,998.24
2018-03-30T04:11:21.309Z,998.24
2018-03-30T04:12:21.287Z,998.22
2018-03-30T04:13:21.260Z,998.23
2018-03-30T04:14:21.234Z,998.19
2018-03-30T04:15:21.218Z,998.19
2018-03-30T04:16:21.188Z,998.15
2018-03-30T04:17:21.160Z,998.14
2018-03-30T04:18:21.136Z,998.13
2018-03-30T04:19:21.114Z,998.13
2018-03-30T04:20:21.085Z,998.11
2018-03-30T04:21:21.060Z,998.13
2018-03-30T04:22:21.035Z,998.11
2018-03-30T04:23:21.033Z,998.11
2018-03-30T04:24:20.986Z,998.13
2018-03-30T04:25:20.961Z,998.13
2018-03-30T04:26:20.943Z,998.13
2018-03-30T04:27:20.928Z,998.11
2018-03-30T04:28:20.908Z,998.13
2018-03-30T04:29:20.884Z,998.09
2018-03-30T04:30:20.887Z,998.06
2018-03-30T04:31:20.855Z,998.06
2018-03-30T04:32:20.814Z,998.08
2018-03-30T04:33:20.824Z,998.04
2018-03-30T04:34:20.753Z,998.03
2018-03-30T04:35:20.728Z,998.03
2018-03-30T04:36:20.722Z,997.99
2018-03-30T04:37:20.704Z,997.98
2018-03-30T04:38:20.654Z,997.97
2018-03-30T04:39:20.874Z,998.00
2018-03-30T04:40:20.649Z,998.00
2018-03-30T04:41:20.559Z,997.99
2018-03-30T04:42:20.531Z,997.99
2018-03-30T04:43:20.509Z,997.98
2018-03-30T04:44:20.486Z,998.00
2018-03-30T04:45:20.468Z,998.01
2018-03-30T04:46:20.431Z,998.02
2018-03-30T04:47:20.410Z,997.97
2018-03-30T04:48:20.384Z,998.02
2018-03-30T04:49:20.355Z,998.00
2018-03-30T04:50:20.360Z,997.99
2018-03-30T04:51:20.313Z,998.01
2018-03-30T04:52:20.286Z,998.01
2018-03-30T04:53:20.252Z,998.01
2018-03-30T04:54:20.230Z,997.99
2018-03-30T04:55:20.203Z,997.98
2018-03-30T04:56:20.180Z,997.98
2018-03-30T04:57:20.154Z,997.96
2018-03-30T04:58:20.145Z,997.97
2018-03-30T04:59:20.161Z,998.00
2018-03-30T05:00:20.143Z,997.98
2018-03-30T05:01:20.074Z,997.97
2018-03-30T05:02:20.067Z,997.98
2018-03-30T05:03:20.062Z,997.99
2018-03-30T05:04:19.979Z,998.02
2018-03-30T05:05:19.952Z,998.00
2018-03-30T05:06:19.927Z,997.98
2018-03-30T05:07:19.904Z,998.01
2018-03-30T05:08:19.885Z,998.04
2018-03-30T05:09:19.852Z,998.01
2018-03-30T05:10:19.834Z,998.02
2018-03-30T05:11:19.800Z,998.04
2018-03-30T05:12:19.784Z,998.05
2018-03-30T05:13:19.752Z,998.04
2018-03-30T05:14:19.728Z,998.06
2018-03-30T05:15:19.723Z,998.13
2018-03-30T05:16:19.679Z,998.20
2018-03-30T05:17:19.673Z,998.31
2018-03-30T05:18:19.624Z,998.41
2018-03-30T05:19:19.602Z,998.44
2018-03-30T05:20:19.675Z,998.43
2018-03-30T05:21:19.548Z,998.44
2018-03-30T05:22:19.527Z,998.36
2018-03-30T05:23:19.500Z,998.30
2018-03-30T05:24:20.215Z,998.28
2018-03-30T05:25:19.525Z,998.28
2018-03-30T05:26:19.422Z,998.26
2018-03-30T05:27:19.441Z,998.33
2018-03-30T05:28:19.374Z,998.37
2018-03-30T05:29:19.349Z,998.37
2018-03-30T05:30:19.322Z,998.31
2018-03-30T05:31:19.306Z,998.32
2018-03-30T05:32:19.269Z,998.26
2018-03-30T05:33:19.244Z,998.26
2018-03-30T05:34:19.220Z,998.26
2018-03-30T05:35:19.194Z,998.30
2018-03-30T05:36:19.169Z,998.27
2018-03-30T05:37:19.143Z,998.30
2018-03-30T05:38:19.176Z,998.31
2018-03-30T05:39:19.095Z,998.33
2018-03-30T05:40:19.070Z,998.30
2018-03-30T05:41:19.045Z,998.29
2018-03-30T05:42:19.019Z,998.30
2018-03-30T05:43:18.993Z,998.29
2018-03-30T05:44:18.965Z,998.32
2018-03-30T05:45:18.942Z,998.32
2018-03-30T05:46:18.962Z,998.34
2018-03-30T05:47:18.893Z,998.31
2018-03-30T05:48:18.865Z,998.32
2018-03-30T05:49:18.845Z,998.33
2018-03-30T05:50:19.076Z,998.30
2018-03-30T05:51:18.794Z,998.30
2018-03-30T05:52:18.827Z,998.25
2018-03-30T05:53:18.750Z,998.26
2018-03-30T05:54:18.743Z,998.29
2018-03-30T05:55:18.744Z,998.28
2018-03-30T05:56:18.726Z,998.25
2018-03-30T05:57:18.641Z,998.32
2018-03-30T05:58:18.623Z,998.30
2018-03-30T05:59:18.652Z,998.28
2018-03-30T06:00:18.578Z,998.24
2018-03-30T06:01:18.542Z,998.27
2018-03-30T06:02:18.558Z,998.28
2018-03-30T06:03:18.491Z,998.28
2018-03-30T06:04:18.534Z,998.28
2018-03-30T06:05:18.512Z,998.30
2018-03-30T06:06:18.413Z,998.30
2018-03-30T06:07:18.395Z,998.29
2018-03-30T06:08:18.370Z,998.27
2018-03-30T06:09:18.343Z,998.28
2018-03-30T06:10:18.336Z,998.25
2018-03-30T06:11:18.295Z,998.25
2018-03-30T06:12:18.275Z,998.24
2018-03-30T06:13:18.238Z,998.28
2018-03-30T06:14:18.215Z,998.27
2018-03-30T06:15:18.197Z,998.26
2018-03-30T06:16:18.167Z,998.30
2018-03-30T06:17:18.140Z,998.25
2018-03-30T06:18:18.166Z,998.32
2018-03-30T06:19:18.102Z,998.29
2018-03-30T06:20:18.067Z,998.28
2018-03-30T06:21:18.057Z,998.27
2018-03-30T06:22:18.342Z,998.28
2018-03-30T06:23:17.990Z,998.26
2018-03-30T06:24:17.967Z,998.24
2018-03-30T06:25:17.949Z,998.21
2018-03-30T06:26:17.918Z,998.24
2018-03-30T06:27:17.898Z,998.19
2018-03-30T06:28:17.897Z,998.25
2018-03-30T06:29:17.856Z,998.23
2018-03-30T06:30:17.816Z,998.22
2018-03-30T06:31:17.792Z,998.23
2018-03-30T06:32:17.881Z,998.26
2018-03-30T06:33:17.819Z,998.25
2018-03-30T06:34:17.723Z,998.26
2018-03-30T06:35:17.733Z,998.31
2018-03-30T06:36:17.681Z,998.31
2018-03-30T06:37:17.643Z,998.29
2018-03-30T06:38:17.693Z,998.29
2018-03-30T06:39:17.663Z,998.34
2018-03-30T06:40:17.668Z,998.31
2018-03-30T06:41:17.582Z,998.26
2018-03-30T06:42:17.618Z,998.27
2018-03-30T06:43:17.527Z,998.29
2018-03-30T06:44:17.519Z,998.30
2018-03-30T06:45:18.214Z,998.28
2018-03-30T06:46:17.480Z,998.26
2018-03-30T06:47:17.438Z,998.26
2018-03-30T06:48:17.420Z,998.26
2018-03-30T06:49:17.361Z,998.28
2018-03-30T06:50:17.359Z,998.28
2018-03-30T06:51:17.334Z,998.28
2018-03-30T06:52:17.336Z,998.29
2018-03-30T06:53:17.288Z,998.28
2018-03-30T06:54:17.226Z,998.30
2018-03-30T06:55:17.205Z,998.29
2018-03-30T06:56:17.216Z,998.27
2018-03-30T06:57:17.186Z,998.23
2018-03-30T06:58:17.129Z,998.25
2018-03-30T06:59:17.176Z,998.19
2018-03-30T07:00:17.137Z,998.20
2018-03-30T07:01:17.083Z,998.18
2018-03-30T07:02:17.114Z,998.19
2018-03-30T07:03:17.006Z,998.23
2018-03-30T07:04:17.237Z,998.21
2018-03-30T07:05:17.084Z,998.22
2018-03-30T07:06:16.998Z,998.24
2018-03-30T07:07:16.948Z,998.25
2018-03-30T07:08:16.902Z,998.26
2018-03-30T07:09:16.860Z,998.27
2018-03-30T07:10:16.846Z,998.28
2018-03-30T07:11:16.888Z,998.29
2018-03-30T07:12:16.790Z,998.31
2018-03-30T07:13:16.762Z,998.33
2018-03-30T07:14:16.743Z,998.36
2018-03-30T07:15:16.751Z,998.36
2018-03-30T07:16:16.703Z,998.32
2018-03-30T07:17:16.710Z,998.34
2018-03-30T07:18:16.651Z,998.33
2018-03-30T07:19:16.667Z,998.33
2018-03-30T07:20:16.606Z,998.29
2018-03-30T07:21:16.570Z,998.31
2018-03-30T07:22:16.560Z,998.29
2018-03-30T07:23:16.526Z,998.29
2018-03-30T07:24:16.552Z,998.35
2018-03-30T07:25:16.521Z,998.34
2018-03-30T07:26:16.500Z,998.37
2018-03-30T07:27:16.428Z,998.33
2018-03-30T07:28:16.408Z,998.37
2018-03-30T07:29:16.430Z,998.34
2018-03-30T07:30:16.415Z,998.35
2018-03-30T07:31:16.340Z,998.28
2018-03-30T07:32:16.322Z,998.26
2018-03-30T07:33:16.354Z,998.28
2018-03-30T07:34:16.407Z,998.24
2018-03-30T07:35:16.237Z,998.22
2018-03-30T07:36:16.214Z,998.22
2018-03-30T07:37:16.191Z,998.23
2018-03-30T07:38:16.166Z,998.21
2018-03-30T07:39:16.143Z,998.19
2018-03-30T07:40:16.119Z,998.22
2018-03-30T07:41:16.102Z,998.24
2018-03-30T07:42:16.076Z,998.23
2018-03-30T07:43:16.050Z,998.22
2018-03-30T07:44:16.029Z,998.23
2018-03-30T07:45:16.003Z,998.20
2018-03-30T07:46:15.980Z,998.18
2018-03-30T07:47:15.994Z,998.13
2018-03-30T07:48:15.948Z,998.17
2018-03-30T07:49:15.908Z,998.12
2018-03-30T07:50:15.930Z,998.12
2018-03-30T07:51:15.882Z,998.12
2018-03-30T07:52:15.861Z,998.14
2018-03-30T07:53:15.814Z,998.10
2018-03-30T07:54:15.796Z,998.11
2018-03-30T07:55:15.981Z,998.12
2018-03-30T07:56:15.749Z,998.10
2018-03-30T07:57:15.731Z,998.11
2018-03-30T07:58:15.700Z,998.06
2018-03-30T07:59:16.240Z,998.08
2018-03-30T08:00:15.657Z,998.06
2018-03-30T08:01:15.631Z,998.04
2018-03-30T08:02:15.647Z,998.05
2018-03-30T08:03:15.586Z,998.08
2018-03-30T08:04:15.565Z,998.00
2018-03-30T08:05:15.542Z,997.98
2018-03-30T08:06:15.518Z,998.01
2018-03-30T08:07:15.518Z,997.95
2018-03-30T08:08:15.474Z,997.97
2018-03-30T08:09:15.447Z,997.93
2018-03-30T08:10:15.428Z,997.97
2018-03-30T08:11:15.403Z,997.92
2018-03-30T08:12:15.384Z,997.94
2018-03-30T08:13:15.364Z,997.97
2018-03-30T08:14:15.336Z,997.91
2018-03-30T08:15:15.318Z,997.91
2018-03-30T08:16:15.293Z,997.89
2018-03-30T08:17:15.268Z,997.87
2018-03-30T08:18:15.266Z,997.91
2018-03-30T08:19:15.241Z,997.89
2018-03-30T08:20:15.207Z,997.85
2018-03-30T08:21:15.202Z,997.87
2018-03-30T08:22:15.220Z,997.87
2018-03-30T08:23:15.195Z,997.81
2018-03-30T08:24:15.122Z,997.88
2018-03-30T08:25:15.099Z,997.85
2018-03-30T08:26:15.140Z,997.84
2018-03-30T08:27:15.044Z,997.85
2018-03-30T08:28:15.033Z,997.82
2018-03-30T08:29:14.999Z,997.80
2018-03-30T08:30:14.975Z,997.78
2018-03-30T08:31:15.019Z,997.81
2018-03-30T08:32:14.930Z,997.79
2018-03-30T08:33:14.906Z,997.72
2018-03-30T08:34:14.940Z,997.75
2018-03-30T08:35:14.862Z,997.74
2018-03-30T08:36:14.848Z,997.71
2018-03-30T08:37:14.839Z,997.69
2018-03-30T08:38:14.870Z,997.72
2018-03-30T08:39:14.864Z,997.74
2018-03-30T08:40:14.757Z,997.70
2018-03-30T08:41:14.728Z,997.68
2018-03-30T08:42:14.729Z,997.64
2018-03-30T08:43:14.708Z,997.66
2018-03-30T08:44:14.660Z,997.67
2018-03-30T08:45:14.644Z,997.67
2018-03-30T08:46:14.620Z,997.68
2018-03-30T08:47:14.597Z,997.67
2018-03-30T08:48:14.573Z,997.69
2018-03-30T08:49:14.581Z,997.67
2018-03-30T08:50:14.597Z,997.65
2018-03-30T08:51:14.507Z,997.67
2018-03-30T08:52:14.498Z,997.65
2018-03-30T08:53:14.458Z,997.67
2018-03-30T08:54:14.471Z,997.67
2018-03-30T08:55:14.419Z,997.67
2018-03-30T08:56:14.396Z,997.69
2018-03-30T08:57:14.372Z,997.66
2018-03-30T08:58:14.385Z,997.66
2018-03-30T08:59:14.330Z,997.63
2018-03-30T09:00:14.310Z,997.63
2018-03-30T09:01:14.292Z,997.58
2018-03-30T09:02:14.303Z,997.56
2018-03-30T09:03:14.269Z,997.60
2018-03-30T09:04:14.255Z,997.56
2018-03-30T09:05:14.238Z,997.54
2018-03-30T09:06:14.383Z,997.50
2018-03-30T09:07:14.232Z,997.50
2018-03-30T09:08:14.222Z,997.51
2018-03-30T09:09:14.112Z,997.52
2018-03-30T09:10:14.119Z,997.47
2018-03-30T09:11:14.146Z,997.44
2018-03-30T09:12:14.046Z,997.47
2018-03-30T09:13:14.024Z,997.45
2018-03-30T09:14:14.029Z,997.46
2018-03-30T09:15:13.993Z,997.48
2018-03-30T09:16:13.953Z,997.48
2018-03-30T09:17:13.935Z,997.46
2018-03-30T09:18:14.484Z,997.44
2018-03-30T09:19:13.902Z,997.41
2018-03-30T09:20:13.897Z,997.40
2018-03-30T09:21:13.876Z,997.39
2018-03-30T09:22:13.846Z,997.35
2018-03-30T09:23:14.030Z,997.36
2018-03-30T09:24:13.828Z,997.37
2018-03-30T09:25:13.842Z,997.38
2018-03-30T09:26:13.761Z,997.34
2018-03-30T09:27:13.717Z,997.33
2018-03-30T09:28:13.705Z,997.28
2018-03-30T09:29:13.692Z,997.28
2018-03-30T09:30:13.661Z,997.23
2018-03-30T09:31:13.635Z,997.26
2018-03-30T09:32:13.612Z,997.26
2018-03-30T09:33:13.587Z,997.23
2018-03-30T09:34:13.590Z,997.23
2018-03-30T09:35:13.546Z,997.19
2018-03-30T09:36:13.527Z,997.21
2018-03-30T09:37:13.508Z,997.19
2018-03-30T09:38:13.483Z,997.14
2018-03-30T09:39:13.476Z,997.12
2018-03-30T09:40:13.450Z,997.09
2018-03-30T09:41:13.426Z,997.07
2018-03-30T09:42:13.416Z,997.09
2018-03-30T09:43:13.399Z,997.05
2018-03-30T09:44:13.367Z,997.05
2018-03-30T09:46:13.323Z,997.01
2018-03-30T09:47:13.302Z,996.97
2018-03-30T09:48:13.277Z,996.93
2018-03-30T09:49:13.291Z,996.94
2018-03-30T09:50:13.235Z,996.93
2018-03-30T09:51:13.214Z,996.90
2018-03-30T09:52:13.203Z,996.88
2018-03-30T09:53:13.178Z,996.84
2018-03-30T09:54:13.156Z,996.85
2018-03-30T09:55:13.137Z,996.86
2018-03-30T09:56:13.114Z,996.85
2018-03-30T09:57:13.095Z,996.85
2018-03-30T09:58:13.080Z,996.81
2018-03-30T09:59:13.106Z,996.78
2018-03-30T10:00:13.037Z,996.75
2018-03-30T10:01:13.102Z,996.74
2018-03-30T10:02:13.065Z,996.68
2018-03-30T10:03:12.984Z,996.66
2018-03-30T10:04:13.065Z,996.71
2018-03-30T10:05:12.999Z,996.68
2018-03-30T10:06:13.172Z,996.68
2018-03-30T10:07:12.893Z,996.59
2018-03-30T10:08:13.174Z,996.55
2018-03-30T10:09:13.127Z,996.57
2018-03-30T10:10:12.939Z,996.54
2018-03-30T10:11:12.836Z,996.55
2018-03-30T10:12:12.793Z,996.55
2018-03-30T10:13:12.790Z,996.51
2018-03-30T10:14:12.755Z,996.45
2018-03-30T10:15:12.739Z,996.52
2018-03-30T10:16:12.761Z,996.61
2018-03-30T10:17:12.810Z,996.73
2018-03-30T10:18:12.698Z,996.64
2018-03-30T10:19:12.657Z,996.61
2018-03-30T10:20:12.638Z,996.53
2018-03-30T10:21:12.627Z,996.83
2018-03-30T10:22:12.603Z,996.89
2018-03-30T10:23:12.583Z,996.63
2018-03-30T10:24:12.571Z,996.61
2018-03-30T10:25:12.547Z,996.80
2018-03-30T10:26:12.531Z,996.81
2018-03-30T10:27:12.513Z,996.58
2018-03-30T10:28:12.491Z,996.50
2018-03-30T10:29:12.473Z,996.34
2018-03-30T10:30:12.487Z,996.72
2018-03-30T10:31:12.442Z,996.41
2018-03-30T10:32:12.423Z,996.21
2018-03-30T10:33:12.404Z,996.66
2018-03-30T10:34:12.418Z,996.68
2018-03-30T10:35:12.373Z,996.68
2018-03-30T10:36:12.374Z,996.64
2018-03-30T10:37:12.342Z,996.59
2018-03-30T10:38:12.334Z,996.59
2018-03-30T10:39:12.317Z,996.65
2018-03-30T10:40:12.298Z,996.49
2018-03-30T10:41:12.286Z,996.49
2018-03-30T10:42:12.269Z,996.52
2018-03-30T10:43:12.286Z,996.55
2018-03-30T10:44:12.315Z,996.53
2018-03-30T10:45:12.261Z,996.43
2018-03-30T10:46:12.382Z,996.38
2018-03-30T10:47:12.223Z,996.32
2018-03-30T10:48:12.253Z,996.24
2018-03-30T10:49:12.193Z,996.25
2018-03-30T10:50:12.186Z,996.22
2018-03-30T10:51:12.166Z,996.22
2018-03-30T10:52:12.151Z,996.09
2018-03-30T10:53:12.184Z,996.06
2018-03-30T10:54:12.149Z,996.06
2018-03-30T10:55:12.118Z,996.06
2018-03-30T10:56:12.108Z,996.18
2018-03-30T10:57:12.098Z,996.21
2018-03-30T10:58:12.170Z,996.12
2018-03-30T10:59:12.076Z,996.04
2018-03-30T11:00:12.073Z,996.01
2018-03-30T11:01:12.056Z,996.01
2018-03-30T11:02:12.048Z,995.99
2018-03-30T11:03:12.039Z,996.05
2018-03-30T11:04:12.030Z,996.07
2018-03-30T11:05:12.052Z,995.91
2018-03-30T11:06:12.010Z,995.87
2018-03-30T11:07:12.056Z,995.89
2018-03-30T11:08:12.013Z,995.87
2018-03-30T11:09:11.996Z,995.81
2018-03-30T11:10:11.971Z,995.82
2018-03-30T11:11:11.978Z,995.78
2018-03-30T11:12:11.954Z,995.73
2018-03-30T11:13:11.941Z,995.74
2018-03-30T11:14:11.934Z,995.69
2018-03-30T11:15:11.923Z,995.73
2018-03-30T11:16:11.912Z,995.60
2018-03-30T11:17:11.982Z,995.74
2018-03-30T11:18:11.894Z,995.64
2018-03-30T11:19:11.946Z,995.73
2018-03-30T11:20:11.874Z,995.74
2018-03-30T11:21:11.859Z,995.77
2018-03-30T11:22:11.851Z,995.70
2018-03-30T11:23:11.845Z,995.75
2018-03-30T11:24:11.825Z,995.75
2018-03-30T11:25:11.815Z,995.71
2018-03-30T11:26:11.806Z,995.76
2018-03-30T11:27:11.807Z,995.69
2018-03-30T11:28:11.807Z,995.64
2018-03-30T11:29:11.790Z,995.60
2018-03-30T11:30:11.777Z,995.66
2018-03-30T11:31:11.752Z,995.42
2018-03-30T11:32:11.743Z,995.61
2018-03-30T11:33:11.738Z,995.57
2018-03-30T11:34:11.746Z,995.56
2018-03-30T11:35:11.721Z,995.64
2018-03-30T11:36:11.709Z,995.39
2018-03-30T11:37:11.741Z,995.64
2018-03-30T11:38:11.731Z,995.63
2018-03-30T11:39:11.696Z,995.59
2018-03-30T11:40:11.672Z,995.68
2018-03-30T11:41:11.658Z,995.70
2018-03-30T11:42:11.652Z,995.60
2018-03-30T11:43:11.647Z,995.28
2018-03-30T11:44:11.637Z,995.55
2018-03-30T11:45:11.632Z,995.54
2018-03-30T11:46:11.622Z,995.52
2018-03-30T11:47:11.620Z,995.51
2018-03-30T11:48:11.618Z,995.45
2018-03-30T11:49:11.602Z,995.42
2018-03-30T11:50:11.624Z,995.41
2018-03-30T11:51:11.590Z,995.37
2018-03-30T11:52:11.583Z,995.37
2018-03-30T11:53:11.578Z,995.37
2018-03-30T11:54:11.572Z,995.31
2018-03-30T11:55:11.567Z,995.24
2018-03-30T11:56:11.564Z,995.17
2018-03-30T11:57:11.560Z,995.13
2018-03-30T11:58:11.556Z,995.20
2018-03-30T11:59:11.549Z,995.16
2018-03-30T12:00:11.548Z,995.16
2018-03-30T12:01:11.541Z,995.10
2018-03-30T12:02:11.537Z,995.14
2018-03-30T12:03:11.542Z,995.11
2018-03-30T12:04:11.531Z,995.05
2018-03-30T12:05:11.528Z,995.08
2018-03-30T12:06:11.525Z,995.00
2018-03-30T12:07:11.523Z,995.02
2018-03-30T12:08:11.552Z,994.94
2018-03-30T12:09:11.519Z,994.94
2018-03-30T12:10:11.519Z,994.93
2018-03-30T12:11:11.519Z,994.93
2018-03-30T12:12:11.516Z,994.86
2018-03-30T12:13:11.516Z,994.84
2018-03-30T12:14:11.512Z,994.82
2018-03-30T12:15:11.514Z,994.77
2018-03-30T12:16:11.516Z,994.65
2018-03-30T12:17:11.513Z,994.69
2018-03-30T12:18:11.530Z,994.74
2018-03-30T12:19:11.512Z,994.68
2018-03-30T12:20:11.513Z,994.57
2018-03-30T12:21:11.515Z,994.54
2018-03-30T12:22:11.523Z,994.46
2018-03-30T12:23:11.518Z,994.43
2018-03-30T12:24:11.515Z,994.44
2018-03-30T12:25:11.534Z,994.40
2018-03-30T12:26:11.516Z,994.32
2018-03-30T12:27:11.514Z,994.28
2018-03-30T12:28:11.572Z,994.24
2018-03-30T12:29:11.523Z,994.18